sensor_id;sensor_type;location;lat;lon;timestamp;pressure;altitude;pressure_sealevel;temperature;humidity
43488;BME280;29078;41.932;25.554;2024-02-28T00:01:52;100095.09;;;9.40;59.64
43488;BME280;29078;41.932;25.554;2024-02-28T00:04:18;100100.66;;;9.37;58.76
43488;BME280;29078;41.932;25.554;2024-02-28T00:06:43;100100.81;;;9.36;58.98
43488;BME280;29078;41.932;25.554;2024-02-28T00:09:12;100099.94;;;9.27;58.63
43488;BME280;29078;41.932;25.554;2024-02-28T00:11:45;100098.25;;;9.18;59.14
43488;BME280;29078;41.932;25.554;2024-02-28T00:14:13;100115.72;;;9.19;59.06
43488;BME280;29078;41.932;25.554;2024-02-28T00:16:42;100089.84;;;9.14;59.23
43488;BME280;29078;41.932;25.554;2024-02-28T00:19:08;100097.06;;;9.12;59.19
43488;BME280;29078;41.932;25.554;2024-02-28T00:21:33;100093.91;;;9.09;59.16
43488;BME280;29078;41.932;25.554;2024-02-28T00:23:58;100095.72;;;9.08;59.40
43488;BME280;29078;41.932;25.554;2024-02-28T00:26:24;100096.88;;;9.06;59.45
43488;BME280;29078;41.932;25.554;2024-02-28T00:28:49;100096.56;;;9.09;59.35
43488;BME280;29078;41.932;25.554;2024-02-28T00:31:14;100104.59;;;9.07;59.13
43488;BME280;29078;41.932;25.554;2024-02-28T00:33:39;100104.91;;;9.04;58.92
43488;BME280;29078;41.932;25.554;2024-02-28T00:36:05;100101.59;;;9.02;59.31
43488;BME280;29078;41.932;25.554;2024-02-28T00:38:30;100098.81;;;9.04;59.09
43488;BME280;29078;41.932;25.554;2024-02-28T00:40:55;100110.03;;;9.06;59.19
43488;BME280;29078;41.932;25.554;2024-02-28T00:43:21;100115.59;;;9.03;59.18
43488;BME280;29078;41.932;25.554;2024-02-28T00:45:46;100108.31;;;8.97;59.14
43488;BME280;29078;41.932;25.554;2024-02-28T00:48:11;100110.97;;;8.97;59.08
43488;BME280;29078;41.932;25.554;2024-02-28T00:50:37;100102.06;;;8.98;58.89
43488;BME280;29078;41.932;25.554;2024-02-28T00:53:02;100093.94;;;8.91;58.97
43488;BME280;29078;41.932;25.554;2024-02-28T00:55:27;100099.66;;;8.86;59.12
43488;BME280;29078;41.932;25.554;2024-02-28T00:57:53;100106.06;;;8.84;59.07
43488;BME280;29078;41.932;25.554;2024-02-28T01:00:18;100103.22;;;8.77;59.17
43488;BME280;29078;41.932;25.554;2024-02-28T01:02:43;100096.06;;;8.70;59.41
43488;BME280;29078;41.932;25.554;2024-02-28T01:05:09;100100.22;;;8.54;59.75
43488;BME280;29078;41.932;25.554;2024-02-28T01:07:34;100107.97;;;8.56;59.90
43488;BME280;29078;41.932;25.554;2024-02-28T01:09:59;100101.56;;;8.58;59.73
43488;BME280;29078;41.932;25.554;2024-02-28T01:12:24;100100.28;;;8.63;59.78
43488;BME280;29078;41.932;25.554;2024-02-28T01:14:50;100100.97;;;8.65;59.65
43488;BME280;29078;41.932;25.554;2024-02-28T01:17:15;100097.06;;;8.69;59.51
43488;BME280;29078;41.932;25.554;2024-02-28T01:19:40;100102.16;;;8.70;59.04
43488;BME280;29078;41.932;25.554;2024-02-28T01:22:05;100095.25;;;8.69;59.42
43488;BME280;29078;41.932;25.554;2024-02-28T01:24:31;100103.00;;;8.71;59.29
43488;BME280;29078;41.932;25.554;2024-02-28T01:26:58;100105.78;;;8.69;59.22
43488;BME280;29078;41.932;25.554;2024-02-28T01:29:23;100106.75;;;8.68;59.14
43488;BME280;29078;41.932;25.554;2024-02-28T01:31:49;100102.16;;;8.70;58.97
43488;BME280;29078;41.932;25.554;2024-02-28T01:34:14;100112.03;;;8.68;58.97
43488;BME280;29078;41.932;25.554;2024-02-28T01:36:39;100108.72;;;8.66;58.77
43488;BME280;29078;41.932;25.554;2024-02-28T01:39:04;100115.25;;;8.62;58.66
43488;BME280;29078;41.932;25.554;2024-02-28T01:41:30;100115.56;;;8.59;58.81
43488;BME280;29078;41.932;25.554;2024-02-28T01:43:55;100121.13;;;8.56;58.83
43488;BME280;29078;41.932;25.554;2024-02-28T01:46:24;100130.97;;;8.54;58.50
43488;BME280;29078;41.932;25.554;2024-02-28T01:48:50;100129.47;;;8.51;58.65
43488;BME280;29078;41.932;25.554;2024-02-28T01:51:16;100125.78;;;8.44;58.39
43488;BME280;29078;41.932;25.554;2024-02-28T01:53:42;100115.03;;;8.38;58.50
43488;BME280;29078;41.932;25.554;2024-02-28T01:56:07;100115.34;;;8.35;58.53
43488;BME280;29078;41.932;25.554;2024-02-28T01:58:33;100119.22;;;8.31;58.83
43488;BME280;29078;41.932;25.554;2024-02-28T02:00:58;100111.25;;;8.22;58.68
43488;BME280;29078;41.932;25.554;2024-02-28T02:03:24;100110.84;;;8.17;58.96
43488;BME280;29078;41.932;25.554;2024-02-28T02:05:49;100122.47;;;8.15;58.57
43488;BME280;29078;41.932;25.554;2024-02-28T02:08:14;100115.72;;;8.12;59.19
43488;BME280;29078;41.932;25.554;2024-02-28T02:10:40;100117.13;;;8.07;58.64
43488;BME280;29078;41.932;25.554;2024-02-28T02:13:06;100119.75;;;8.07;59.01
43488;BME280;29078;41.932;25.554;2024-02-28T02:15:31;100126.00;;;8.06;59.18
43488;BME280;29078;41.932;25.554;2024-02-28T02:17:57;100115.91;;;8.01;58.80
43488;BME280;29078;41.932;25.554;2024-02-28T02:20:22;100115.91;;;8.01;58.89
43488;BME280;29078;41.932;25.554;2024-02-28T02:22:47;100117.56;;;8.02;58.97
43488;BME280;29078;41.932;25.554;2024-02-28T02:25:13;100117.56;;;8.02;58.86
43488;BME280;29078;41.932;25.554;2024-02-28T02:27:38;100121.03;;;8.03;58.98
43488;BME280;29078;41.932;25.554;2024-02-28T02:30:04;100121.84;;;8.03;58.77
43488;BME280;29078;41.932;25.554;2024-02-28T02:32:29;100117.56;;;8.02;59.02
43488;BME280;29078;41.932;25.554;2024-02-28T02:34:55;100119.22;;;8.03;58.99
43488;BME280;29078;41.932;25.554;2024-02-28T02:37:20;100123.91;;;8.09;58.81
43488;BME280;29078;41.932;25.554;2024-02-28T02:39:46;100134.13;;;8.12;59.07
43488;BME280;29078;41.932;25.554;2024-02-28T02:42:11;100138.81;;;8.18;58.66
43488;BME280;29078;41.932;25.554;2024-02-28T02:44:39;100144.47;;;8.23;58.55
43488;BME280;29078;41.932;25.554;2024-02-28T02:47:05;100135.28;;;8.27;58.42
43488;BME280;29078;41.932;25.554;2024-02-28T02:49:30;100143.72;;;8.31;58.47
43488;BME280;29078;41.932;25.554;2024-02-28T02:51:55;100141.09;;;8.31;58.24
43488;BME280;29078;41.932;25.554;2024-02-28T02:54:20;100140.94;;;8.33;58.49
43488;BME280;29078;41.932;25.554;2024-02-28T02:56:46;100140.69;;;8.36;58.12
43488;BME280;29078;41.932;25.554;2024-02-28T02:59:11;100146.91;;;8.35;58.05
43488;BME280;29078;41.932;25.554;2024-02-28T03:01:39;100152.31;;;8.33;58.06
43488;BME280;29078;41.932;25.554;2024-02-28T03:04:05;100152.06;;;8.26;58.42
43488;BME280;29078;41.932;25.554;2024-02-28T03:06:30;100152.22;;;8.25;58.39
43488;BME280;29078;41.932;25.554;2024-02-28T03:08:55;100157.75;;;8.22;58.58
43488;BME280;29078;41.932;25.554;2024-02-28T03:11:20;100153.63;;;8.19;58.68
43488;BME280;29078;41.932;25.554;2024-02-28T03:13:46;100153.06;;;8.16;59.24
43488;BME280;29078;41.932;25.554;2024-02-28T03:16:11;100158.63;;;8.13;58.90
43488;BME280;29078;41.932;25.554;2024-02-28T03:18:36;100158.09;;;8.09;59.20
43488;BME280;29078;41.932;25.554;2024-02-28T03:21:03;100160.72;;;8.09;59.75
43488;BME280;29078;41.932;25.554;2024-02-28T03:23:28;100170.13;;;8.12;59.62
43488;BME280;29078;41.932;25.554;2024-02-28T03:25:53;100167.88;;;8.17;59.57
43488;BME280;29078;41.932;25.554;2024-02-28T03:28:19;100177.69;;;8.24;59.25
43488;BME280;29078;41.932;25.554;2024-02-28T03:30:44;100182.78;;;8.26;60.10
43488;BME280;29078;41.932;25.554;2024-02-28T03:33:09;100186.25;;;8.26;59.67
43488;BME280;29078;41.932;25.554;2024-02-28T03:35:35;100180.31;;;8.24;60.49
43488;BME280;29078;41.932;25.554;2024-02-28T03:38:00;100191.13;;;8.21;59.76
43488;BME280;29078;41.932;25.554;2024-02-28T03:40:25;100190.72;;;8.16;60.15
43488;BME280;29078;41.932;25.554;2024-02-28T03:42:50;100196.94;;;8.15;60.65
43488;BME280;29078;41.932;25.554;2024-02-28T03:45:16;100189.75;;;8.17;60.93
43488;BME280;29078;41.932;25.554;2024-02-28T03:47:41;100187.53;;;8.22;60.19
43488;BME280;29078;41.932;25.554;2024-02-28T03:50:06;100188.22;;;8.24;59.73
43488;BME280;29078;41.932;25.554;2024-02-28T03:52:32;100185.56;;;8.24;59.68
43488;BME280;29078;41.932;25.554;2024-02-28T03:54:57;100182.25;;;8.22;60.73
43488;BME280;29078;41.932;25.554;2024-02-28T03:57:23;100192.66;;;8.14;61.83
43488;BME280;29078;41.932;25.554;2024-02-28T03:59:48;100197.88;;;7.96;63.13
43488;BME280;29078;41.932;25.554;2024-02-28T04:02:13;100199.56;;;7.88;62.75
43488;BME280;29078;41.932;25.554;2024-02-28T04:04:38;100193.38;;;7.79;64.77
43488;BME280;29078;41.932;25.554;2024-02-28T04:07:04;100191.00;;;7.86;63.40
43488;BME280;29078;41.932;25.554;2024-02-28T04:09:29;100199.44;;;7.89;64.28
43488;BME280;29078;41.932;25.554;2024-02-28T04:11:54;100189.16;;;7.96;62.00
43488;BME280;29078;41.932;25.554;2024-02-28T04:14:20;100187.06;;;8.00;63.07
43488;BME280;29078;41.932;25.554;2024-02-28T04:16:45;100190.22;;;8.03;62.95
43488;BME280;29078;41.932;25.554;2024-02-28T04:19:11;100182.19;;;8.05;64.02
43488;BME280;29078;41.932;25.554;2024-02-28T04:21:36;100177.31;;;8.10;62.29
43488;BME280;29078;41.932;25.554;2024-02-28T04:24:01;100178.72;;;8.04;63.80
43488;BME280;29078;41.932;25.554;2024-02-28T04:26:27;100186.09;;;8.01;64.89
43488;BME280;29078;41.932;25.554;2024-02-28T04:28:52;100181.91;;;8.08;63.18
43488;BME280;29078;41.932;25.554;2024-02-28T04:31:17;100180.78;;;8.10;63.50
43488;BME280;29078;41.932;25.554;2024-02-28T04:33:42;100175.91;;;8.15;62.91
43488;BME280;29078;41.932;25.554;2024-02-28T04:36:08;100182.81;;;8.16;64.08
43488;BME280;29078;41.932;25.554;2024-02-28T04:38:33;100187.00;;;8.09;65.49
43488;BME280;29078;41.932;25.554;2024-02-28T04:40:58;100189.50;;;8.11;64.67
43488;BME280;29078;41.932;25.554;2024-02-28T04:43:23;100187.31;;;8.06;65.29
43488;BME280;29078;41.932;25.554;2024-02-28T04:45:49;100183.84;;;8.06;64.12
43488;BME280;29078;41.932;25.554;2024-02-28T04:48:14;100189.09;;;8.06;64.60
43488;BME280;29078;41.932;25.554;2024-02-28T04:50:39;100189.94;;;8.06;63.58
43488;BME280;29078;41.932;25.554;2024-02-28T04:53:04;100190.31;;;8.11;64.17
43488;BME280;29078;41.932;25.554;2024-02-28T04:55:30;100187.84;;;8.10;64.85
43488;BME280;29078;41.932;25.554;2024-02-28T04:57:55;100194.75;;;8.11;64.29
43488;BME280;29078;41.932;25.554;2024-02-28T05:00:20;100195.06;;;8.08;63.78
43488;BME280;29078;41.932;25.554;2024-02-28T05:02:45;100198.41;;;8.00;65.01
43488;BME280;29078;41.932;25.554;2024-02-28T05:05:11;100206.28;;;8.00;65.30
43488;BME280;29078;41.932;25.554;2024-02-28T05:07:36;100209.22;;;7.97;64.93
43488;BME280;29078;41.932;25.554;2024-02-28T05:10:01;100211.16;;;7.95;66.38
43488;BME280;29078;41.932;25.554;2024-02-28T05:12:26;100210.88;;;7.98;65.60
43488;BME280;29078;41.932;25.554;2024-02-28T05:14:52;100215.56;;;8.04;65.76
43488;BME280;29078;41.932;25.554;2024-02-28T05:17:17;100212.78;;;8.06;65.34
43488;BME280;29078;41.932;25.554;2024-02-28T05:19:42;100209.84;;;8.09;64.50
43488;BME280;29078;41.932;25.554;2024-02-28T05:22:08;100220.66;;;8.06;65.16
43488;BME280;29078;41.932;25.554;2024-02-28T05:24:34;100221.94;;;8.02;65.70
43488;BME280;29078;41.932;25.554;2024-02-28T05:27:00;100218.31;;;8.03;65.67
43488;BME280;29078;41.932;25.554;2024-02-28T05:29:25;100220.53;;;8.07;66.20
43488;BME280;29078;41.932;25.554;2024-02-28T05:31:51;100227.00;;;8.13;64.25
43488;BME280;29078;41.932;25.554;2024-02-28T05:34:16;100223.28;;;8.06;65.52
43488;BME280;29078;41.932;25.554;2024-02-28T05:36:41;100228.44;;;7.97;66.97
43488;BME280;29078;41.932;25.554;2024-02-28T05:39:07;100235.66;;;7.95;66.15
43488;BME280;29078;41.932;25.554;2024-02-28T05:41:33;100236.88;;;8.01;65.60
43488;BME280;29078;41.932;25.554;2024-02-28T05:43:58;100233.03;;;7.95;67.11
43488;BME280;29078;41.932;25.554;2024-02-28T05:46:23;100235.94;;;7.92;67.32
43488;BME280;29078;41.932;25.554;2024-02-28T05:48:49;100244.09;;;7.99;66.70
43488;BME280;29078;41.932;25.554;2024-02-28T05:51:14;100240.34;;;8.02;65.90
43488;BME280;29078;41.932;25.554;2024-02-28T05:53:40;100245.84;;;8.08;65.28
43488;BME280;29078;41.932;25.554;2024-02-28T05:56:06;100239.91;;;8.06;65.57
43488;BME280;29078;41.932;25.554;2024-02-28T05:58:45;100235.75;;;8.04;64.81
43488;BME280;29078;41.932;25.554;2024-02-28T06:01:11;100249.88;;;8.03;65.16
43488;BME280;29078;41.932;25.554;2024-02-28T06:03:37;100243.78;;;8.02;65.27
43488;BME280;29078;41.932;25.554;2024-02-28T06:06:02;100251.25;;;8.07;65.17
43488;BME280;29078;41.932;25.554;2024-02-28T06:08:31;100253.16;;;8.14;64.29
43488;BME280;29078;41.932;25.554;2024-02-28T06:10:56;100256.22;;;8.19;64.07
43488;BME280;29078;41.932;25.554;2024-02-28T06:13:21;100268.66;;;8.17;64.52
43488;BME280;29078;41.932;25.554;2024-02-28T06:15:46;100263.81;;;8.22;64.30
43488;BME280;29078;41.932;25.554;2024-02-28T06:18:12;100256.03;;;8.31;64.09
43488;BME280;29078;41.932;25.554;2024-02-28T06:20:37;100258.09;;;8.37;65.03
43488;BME280;29078;41.932;25.554;2024-02-28T06:23:03;100254.44;;;8.47;64.73
43488;BME280;29078;41.932;25.554;2024-02-28T06:25:28;100255.81;;;8.51;64.81
43488;BME280;29078;41.932;25.554;2024-02-28T06:27:54;100261.59;;;8.55;64.35
43488;BME280;29078;41.932;25.554;2024-02-28T06:30:19;100264.22;;;8.55;65.01
43488;BME280;29078;41.932;25.554;2024-02-28T06:32:44;100262.28;;;8.57;64.22
43488;BME280;29078;41.932;25.554;2024-02-28T06:35:09;100274.47;;;8.58;64.23
43488;BME280;29078;41.932;25.554;2024-02-28T06:37:35;100277.94;;;8.58;64.01
43488;BME280;29078;41.932;25.554;2024-02-28T06:40:00;100275.16;;;8.60;63.76
43488;BME280;29078;41.932;25.554;2024-02-28T06:42:26;100291.91;;;8.59;65.46
43488;BME280;29078;41.932;25.554;2024-02-28T06:44:51;100289.00;;;8.62;64.52
43488;BME280;29078;41.932;25.554;2024-02-28T06:47:16;100289.28;;;8.59;65.50
43488;BME280;29078;41.932;25.554;2024-02-28T06:49:43;100289.44;;;8.57;65.13
43488;BME280;29078;41.932;25.554;2024-02-28T06:52:08;100295.22;;;8.61;65.25
43488;BME280;29078;41.932;25.554;2024-02-28T06:54:33;100293.28;;;8.63;65.51
43488;BME280;29078;41.932;25.554;2024-02-28T06:56:59;100297.88;;;8.61;64.44
43488;BME280;29078;41.932;25.554;2024-02-28T06:59:24;100295.91;;;8.63;64.92
43488;BME280;29078;41.932;25.554;2024-02-28T07:01:49;100296.75;;;8.64;65.35
43488;BME280;29078;41.932;25.554;2024-02-28T07:04:14;100292.53;;;8.71;65.42
43488;BME280;29078;41.932;25.554;2024-02-28T07:06:40;100294.72;;;8.75;65.23
43488;BME280;29078;41.932;25.554;2024-02-28T07:09:07;100298.72;;;8.79;64.64
43488;BME280;29078;41.932;25.554;2024-02-28T07:11:32;100296.84;;;8.89;64.99
43488;BME280;29078;41.932;25.554;2024-02-28T07:13:58;100306.28;;;8.92;64.47
43488;BME280;29078;41.932;25.554;2024-02-28T07:16:27;100297.28;;;8.95;62.92
43488;BME280;29078;41.932;25.554;2024-02-28T07:18:52;100303.22;;;8.97;64.42
43488;BME280;29078;41.932;25.554;2024-02-28T07:21:17;100302.63;;;9.03;63.79
43488;BME280;29078;41.932;25.554;2024-02-28T07:23:43;100297.44;;;9.11;63.75
43488;BME280;29078;41.932;25.554;2024-02-28T07:26:08;100298.09;;;9.13;65.22
43488;BME280;29078;41.932;25.554;2024-02-28T07:28:33;100307.38;;;9.17;64.34
43488;BME280;29078;41.932;25.554;2024-02-28T07:30:59;100301.78;;;9.20;65.48
43488;BME280;29078;41.932;25.554;2024-02-28T07:33:24;100308.88;;;9.19;64.97
43488;BME280;29078;41.932;25.554;2024-02-28T07:35:51;100307.44;;;9.25;64.89
43488;BME280;29078;41.932;25.554;2024-02-28T07:38:17;100301.13;;;9.18;66.01
43488;BME280;29078;41.932;25.554;2024-02-28T07:40:45;100293.75;;;9.21;64.60
43488;BME280;29078;41.932;25.554;2024-02-28T07:43:10;100299.59;;;9.33;64.40
43488;BME280;29078;41.932;25.554;2024-02-28T07:45:35;100294.41;;;9.41;64.24
43488;BME280;29078;41.932;25.554;2024-02-28T07:48:01;100285.28;;;9.53;63.37
43488;BME280;29078;41.932;25.554;2024-02-28T07:50:26;100290.75;;;9.60;64.18
43488;BME280;29078;41.932;25.554;2024-02-28T07:52:53;100290.19;;;9.66;64.02
43488;BME280;29078;41.932;25.554;2024-02-28T07:55:18;100299.81;;;9.75;63.40
43488;BME280;29078;41.932;25.554;2024-02-28T07:57:45;100306.31;;;9.89;64.11
43488;BME280;29078;41.932;25.554;2024-02-28T08:00:12;100306.91;;;10.01;63.48
43488;BME280;29078;41.932;25.554;2024-02-28T08:02:37;100313.81;;;10.02;63.64
43488;BME280;29078;41.932;25.554;2024-02-28T08:05:04;100307.09;;;10.07;63.66
43488;BME280;29078;41.932;25.554;2024-02-28T08:07:29;100304.16;;;10.10;63.88
43488;BME280;29078;41.932;25.554;2024-02-28T08:09:54;100314.19;;;10.07;64.62
43488;BME280;29078;41.932;25.554;2024-02-28T08:12:19;100317.13;;;10.04;64.12
43488;BME280;29078;41.932;25.554;2024-02-28T08:14:45;100315.63;;;10.01;64.06
43488;BME280;29078;41.932;25.554;2024-02-28T08:17:11;100322.88;;;9.99;64.12
43488;BME280;29078;41.932;25.554;2024-02-28T08:19:38;100319.94;;;10.02;63.54
43488;BME280;29078;41.932;25.554;2024-02-28T08:22:03;100316.97;;;10.05;64.15
43488;BME280;29078;41.932;25.554;2024-02-28T08:24:28;100319.19;;;9.92;65.10
43488;BME280;29078;41.932;25.554;2024-02-28T08:26:54;100320.69;;;9.95;64.40
43488;BME280;29078;41.932;25.554;2024-02-28T08:29:20;100314.66;;;10.02;64.79
43488;BME280;29078;41.932;25.554;2024-02-28T08:31:45;100313.56;;;10.13;64.96
43488;BME280;29078;41.932;25.554;2024-02-28T08:34:11;100309.63;;;10.17;63.21
43488;BME280;29078;41.932;25.554;2024-02-28T08:36:36;100319.31;;;10.34;63.17
43488;BME280;29078;41.932;25.554;2024-02-28T08:39:02;100315.44;;;10.46;63.74
43488;BME280;29078;41.932;25.554;2024-02-28T08:41:29;100320.94;;;10.61;63.69
43488;BME280;29078;41.932;25.554;2024-02-28T08:43:54;100314.22;;;10.75;63.33
43488;BME280;29078;41.932;25.554;2024-02-28T08:46:20;100315.59;;;10.87;62.86
43488;BME280;29078;41.932;25.554;2024-02-28T08:48:45;100305.53;;;10.99;63.30
43488;BME280;29078;41.932;25.554;2024-02-28T08:51:10;100305.88;;;11.12;62.29
43488;BME280;29078;41.932;25.554;2024-02-28T08:53:36;100305.59;;;11.15;63.28
43488;BME280;29078;41.932;25.554;2024-02-28T08:56:01;100309.91;;;11.24;62.22
43488;BME280;29078;41.932;25.554;2024-02-28T08:58:27;100316.19;;;11.31;62.07
43488;BME280;29078;41.932;25.554;2024-02-28T09:00:52;100312.06;;;11.29;61.93
43488;BME280;29078;41.932;25.554;2024-02-28T09:03:17;100310.41;;;11.28;61.87
43488;BME280;29078;41.932;25.554;2024-02-28T09:05:44;100298.84;;;11.37;61.78
43488;BME280;29078;41.932;25.554;2024-02-28T09:08:09;100301.97;;;11.49;61.94
43488;BME280;29078;41.932;25.554;2024-02-28T09:10:35;100297.03;;;11.54;62.35
43488;BME280;29078;41.932;25.554;2024-02-28T09:13:00;100304.28;;;11.60;62.09
43488;BME280;29078;41.932;25.554;2024-02-28T09:15:25;100295.53;;;11.67;61.38
43488;BME280;29078;41.932;25.554;2024-02-28T09:17:50;100292.03;;;11.75;61.41
43488;BME280;29078;41.932;25.554;2024-02-28T09:20:16;100295.53;;;11.84;61.18
43488;BME280;29078;41.932;25.554;2024-02-28T09:22:42;100290.75;;;11.87;60.58
43488;BME280;29078;41.932;25.554;2024-02-28T09:25:07;100292.91;;;11.92;61.30
43488;BME280;29078;41.932;25.554;2024-02-28T09:27:33;100284.28;;;11.98;61.15
43488;BME280;29078;41.932;25.554;2024-02-28T09:29:59;100283.28;;;12.07;60.74
43488;BME280;29078;41.932;25.554;2024-02-28T09:32:24;100288.88;;;12.12;60.38
43488;BME280;29078;41.932;25.554;2024-02-28T09:34:49;100282.75;;;12.20;60.65
43488;BME280;29078;41.932;25.554;2024-02-28T09:37:14;100276.09;;;12.32;60.22
43488;BME280;29078;41.932;25.554;2024-02-28T09:39:42;100271.75;;;12.39;60.40
43488;BME280;29078;41.932;25.554;2024-02-28T09:42:07;100274.19;;;12.49;60.32
43488;BME280;29078;41.932;25.554;2024-02-28T09:44:36;100278.63;;;12.56;59.61
43488;BME280;29078;41.932;25.554;2024-02-28T09:47:01;100274.16;;;12.65;59.77
43488;BME280;29078;41.932;25.554;2024-02-28T09:49:27;100264.31;;;12.73;59.40
43488;BME280;29078;41.932;25.554;2024-02-28T09:51:53;100260.81;;;12.81;59.06
43488;BME280;29078;41.932;25.554;2024-02-28T09:54:19;100258.09;;;12.89;59.18
43488;BME280;29078;41.932;25.554;2024-02-28T09:56:44;100263.19;;;12.99;58.61
43488;BME280;29078;41.932;25.554;2024-02-28T09:59:10;100260.28;;;13.09;58.65
43488;BME280;29078;41.932;25.554;2024-02-28T10:01:38;100259.38;;;13.24;58.40
43488;BME280;29078;41.932;25.554;2024-02-28T10:04:06;100245.84;;;13.42;58.39
43488;BME280;29078;41.932;25.554;2024-02-28T10:06:32;100243.22;;;13.72;57.16
43488;BME280;29078;41.932;25.554;2024-02-28T10:08:58;100241.22;;;13.88;56.90
43488;BME280;29078;41.932;25.554;2024-02-28T10:11:23;100234.47;;;14.00;56.95
43488;BME280;29078;41.932;25.554;2024-02-28T10:13:49;100224.88;;;14.14;56.77
43488;BME280;29078;41.932;25.554;2024-02-28T10:16:14;100236.47;;;14.28;56.49
43488;BME280;29078;41.932;25.554;2024-02-28T10:18:43;100220.72;;;14.41;55.96
43488;BME280;29078;41.932;25.554;2024-02-28T10:21:09;100215.56;;;14.54;55.75
43488;BME280;29078;41.932;25.554;2024-02-28T10:23:35;100208.19;;;14.71;55.44
43488;BME280;29078;41.932;25.554;2024-02-28T10:26:01;100203.22;;;14.83;55.10
43488;BME280;29078;41.932;25.554;2024-02-28T10:28:27;100200.50;;;14.98;54.91
43488;BME280;29078;41.932;25.554;2024-02-28T10:30:53;100196.84;;;14.99;54.86
43488;BME280;29078;41.932;25.554;2024-02-28T10:33:19;100192.22;;;15.07;54.54
43488;BME280;29078;41.932;25.554;2024-02-28T10:35:44;100188.66;;;15.21;54.06
43488;BME280;29078;41.932;25.554;2024-02-28T10:38:10;100177.63;;;15.24;54.15
43488;BME280;29078;41.932;25.554;2024-02-28T10:40:35;100181.41;;;15.37;53.96
43488;BME280;29078;41.932;25.554;2024-02-28T10:43:00;100185.78;;;15.51;53.82
43488;BME280;29078;41.932;25.554;2024-02-28T10:45:27;100180.88;;;15.69;53.79
43488;BME280;29078;41.932;25.554;2024-02-28T10:47:56;100169.66;;;15.80;53.10
43488;BME280;29078;41.932;25.554;2024-02-28T10:50:21;100173.19;;;15.87;52.84
43488;BME280;29078;41.932;25.554;2024-02-28T10:52:46;100167.28;;;15.99;53.19
43488;BME280;29078;41.932;25.554;2024-02-28T10:55:17;100161.41;;;16.10;51.37
43488;BME280;29078;41.932;25.554;2024-02-28T10:57:43;100154.25;;;16.17;52.12
43488;BME280;29078;41.932;25.554;2024-02-28T11:00:11;100148.34;;;16.28;52.16
43488;BME280;29078;41.932;25.554;2024-02-28T11:02:38;100141.44;;;16.40;51.81
43488;BME280;29078;41.932;25.554;2024-02-28T11:05:03;100134.09;;;16.49;51.44
43488;BME280;29078;41.932;25.554;2024-02-28T11:07:30;100128.56;;;16.57;50.85
43488;BME280;29078;41.932;25.554;2024-02-28T11:09:55;100123.69;;;16.74;50.84
43488;BME280;29078;41.932;25.554;2024-02-28T11:12:24;100122.25;;;16.84;50.62
43488;BME280;29078;41.932;25.554;2024-02-28T11:14:57;100119.59;;;16.98;50.56
43488;BME280;29078;41.932;25.554;2024-02-28T11:17:25;100116.31;;;17.09;49.67
43488;BME280;29078;41.932;25.554;2024-02-28T11:19:51;100108.13;;;17.17;50.44
43488;BME280;29078;41.932;25.554;2024-02-28T11:22:18;100101.53;;;17.26;49.85
43488;BME280;29078;41.932;25.554;2024-02-28T11:24:43;100099.06;;;17.38;49.27
43488;BME280;29078;41.932;25.554;2024-02-28T11:27:11;100092.25;;;17.48;48.80
43488;BME280;29078;41.932;25.554;2024-02-28T11:29:38;100092.00;;;17.63;48.37
43488;BME280;29078;41.932;25.554;2024-02-28T11:32:03;100091.78;;;17.78;49.27
43488;BME280;29078;41.932;25.554;2024-02-28T11:34:29;100083.34;;;17.88;47.92
43488;BME280;29078;41.932;25.554;2024-02-28T11:36:55;100081.03;;;17.98;48.39
43488;BME280;29078;41.932;25.554;2024-02-28T11:39:20;100079.16;;;18.05;48.16
43488;BME280;29078;41.932;25.554;2024-02-28T11:41:49;100079.78;;;18.00;48.66
43488;BME280;29078;41.932;25.554;2024-02-28T11:44:15;100078.97;;;18.00;48.50
43488;BME280;29078;41.932;25.554;2024-02-28T11:46:49;100078.56;;;17.96;48.05
43488;BME280;29078;41.932;25.554;2024-02-28T11:49:15;100064.63;;;17.88;48.46
43488;BME280;29078;41.932;25.554;2024-02-28T11:51:41;100063.44;;;17.84;48.38
43488;BME280;29078;41.932;25.554;2024-02-28T11:54:07;100070.59;;;17.83;48.53
43488;BME280;29078;41.932;25.554;2024-02-28T11:56:33;100065.25;;;17.83;48.63
43488;BME280;29078;41.932;25.554;2024-02-28T11:58:59;100061.34;;;17.79;49.27
43488;BME280;29078;41.932;25.554;2024-02-28T12:03:58;100055.44;;;17.64;49.22
43488;BME280;29078;41.932;25.554;2024-02-28T12:06:24;100056.69;;;17.61;49.72
43488;BME280;29078;41.932;25.554;2024-02-28T12:08:49;100044.78;;;17.57;49.52
43488;BME280;29078;41.932;25.554;2024-02-28T12:11:15;100044.78;;;17.57;49.60
43488;BME280;29078;41.932;25.554;2024-02-28T12:13:40;100041.91;;;17.59;49.63
43488;BME280;29078;41.932;25.554;2024-02-28T12:16:05;100035.94;;;17.57;49.76
43488;BME280;29078;41.932;25.554;2024-02-28T12:18:32;100029.56;;;17.58;49.84
43488;BME280;29078;41.932;25.554;2024-02-28T12:20:57;100028.75;;;17.57;49.67
43488;BME280;29078;41.932;25.554;2024-02-28T12:23:23;100023.41;;;17.57;49.83
43488;BME280;29078;41.932;25.554;2024-02-28T12:25:48;100009.03;;;17.58;49.60
43488;BME280;29078;41.932;25.554;2024-02-28T12:28:13;100019.50;;;17.60;49.83
43488;BME280;29078;41.932;25.554;2024-02-28T12:30:40;100013.53;;;17.64;49.70
43488;BME280;29078;41.932;25.554;2024-02-28T12:33:07;100013.09;;;17.74;49.75
43488;BME280;29078;41.932;25.554;2024-02-28T12:35:32;100018.63;;;17.86;49.18
43488;BME280;29078;41.932;25.554;2024-02-28T12:37:57;100004.19;;;17.93;49.57
43488;BME280;29078;41.932;25.554;2024-02-28T12:40:23;100006.81;;;18.00;49.30